Wright Patterson Air Force Base
KFFO : now visible

Airfield :











YOU CAN JOIN US ON...

 
LOGIN :

Register | Disclaimer

   EN    FR    IT 

 









Legend :    VFR   Marginal VFR   IFR   Intensive IFR   Very Intensive IFR
Visi :
Ceiling :
>= 8 km
>= 3000ft
5 to 8 km
1000 to 3000 ft
1500m to 5 km
500 to 1000 ft
800 to 1500m
200 to 500 ft
< 800m
< 200 ft
Symbols :   Thunderstorms  Fog  Heavy snow  Heavy precipitations  Wind > 20 kt







- Airport Elevation : 823 ft


KFFO - Wright Patterson Air Force Base

CURRENT METAR :
  • 190956Z AUTO 00000KT 10SM CLR 20/18 A3000 RMK AO2 SLP155 T02000183

EXPIRED METARs :
  • 190856Z AUTO 00000KT 10SM CLR 21/19 A2998 RMK AO2 SLP148 T02060185 58005
  • 190756Z AUTO 13003KT 10SM CLR 21/19 A2999 RMK AO2 SLP151 T02070186

TAF TAF KFFO
Valid from the 19 at 03:00 until the 20 at 09:00 UTC


190300Z 1903/2009 29010G15KT 8000 -SHRA SCT030 QNH2995INS
TEMPO 1903/1904 23020G25KT 6000 -TSRA BKN030CB BKN050 OVC060
BECMG 1904/1905 VRB06KT 8000 BR SCT020 BKN025 QNH2999INS
BECMG 1914/1915 26006KT 9999 NSW SCT030 QNH3004INS
BECMG 1917/1918 25015G25KT 8000 -SHRA SCT050 QNH2996INS
TEMPO 1918/1922 23025G35KT -TSRA BKN040CB
BECMG 1921/1922 VRB06KT 9999 NSW FEW040 QNH2996INS
BECMG 2002/2003 VRB06KT 9999 BKN050 QNH3002INS TX33/1920Z TN22/1910Z
No reported NOTAMs for that airfield.



MET'MAP, your aeronautical weather chart ! - Copyright ORBIFLY December 2007 - Disclaimer

ORBIFLY MET'MAP TEAM :

Programming & Development : Alexandra Zaïnal
Concept & Development : Baudouin d'Aumeries
Co-Development & Prog : Marc-Olivier Méhu
Technical & hardware support : Manuel Goepfert

Contact : metmap@orbifly.com




SOURCES & CREDITS :

   NOAA       Earth
Advisory